sensor_id;sensor_type;location;lat;lon;timestamp;temperature;humidity
9223;DHT22;7557;51.698;3.942;2022-07-29T00:01:50;19.50;98.10
9223;DHT22;7557;51.698;3.942;2022-07-29T00:04:19;19.40;98.30
9223;DHT22;7557;51.698;3.942;2022-07-29T00:06:46;19.30;98.40
9223;DHT22;7557;51.698;3.942;2022-07-29T00:09:15;19.40;98.40
9223;DHT22;7557;51.698;3.942;2022-07-29T00:11:42;19.30;98.50
9223;DHT22;7557;51.698;3.942;2022-07-29T00:14:09;19.30;98.40
9223;DHT22;7557;51.698;3.942;2022-07-29T00:16:36;19.30;98.40
9223;DHT22;7557;51.698;3.942;2022-07-29T00:19:03;19.20;98.50
9223;DHT22;7557;51.698;3.942;2022-07-29T00:21:31;19.20;98.70
9223;DHT22;7557;51.698;3.942;2022-07-29T00:23:58;19.10;98.80
9223;DHT22;7557;51.698;3.942;2022-07-29T00:26:27;19.10;98.80
9223;DHT22;7557;51.698;3.942;2022-07-29T00:28:57;19.10;98.80
9223;DHT22;7557;51.698;3.942;2022-07-29T00:31:25;19.20;98.70
9223;DHT22;7557;51.698;3.942;2022-07-29T00:33:55;19.20;98.60
9223;DHT22;7557;51.698;3.942;2022-07-29T00:36:23;19.20;98.80
9223;DHT22;7557;51.698;3.942;2022-07-29T00:38:49;19.10;98.90
9223;DHT22;7557;51.698;3.942;2022-07-29T00:41:17;19.10;98.90
9223;DHT22;7557;51.698;3.942;2022-07-29T00:43:46;19.00;99.00
9223;DHT22;7557;51.698;3.942;2022-07-29T00:46:13;19.00;99.00
9223;DHT22;7557;51.698;3.942;2022-07-29T00:48:40;18.90;99.20
9223;DHT22;7557;51.698;3.942;2022-07-29T00:51:07;18.80;99.30
9223;DHT22;7557;51.698;3.942;2022-07-29T00:56:58;18.80;99.40
9223;DHT22;7557;51.698;3.942;2022-07-29T00:59:27;18.70;99.60
9223;DHT22;7557;51.698;3.942;2022-07-29T01:01:55;18.70;99.60
9223;DHT22;7557;51.698;3.942;2022-07-29T01:04:22;18.60;99.60
9223;DHT22;7557;51.698;3.942;2022-07-29T01:06:49;18.70;99.60
9223;DHT22;7557;51.698;3.942;2022-07-29T01:09:18;18.60;99.70
9223;DHT22;7557;51.698;3.942;2022-07-29T01:11:46;18.60;99.80
9223;DHT22;7557;51.698;3.942;2022-07-29T01:14:14;18.60;99.80
9223;DHT22;7557;51.698;3.942;2022-07-29T01:16:47;18.60;99.60
9223;DHT22;7557;51.698;3.942;2022-07-29T01:19:41;18.80;99.50
9223;DHT22;7557;51.698;3.942;2022-07-29T01:22:27;18.80;99.40
9223;DHT22;7557;51.698;3.942;2022-07-29T01:25:12;18.80;99.50
9223;DHT22;7557;51.698;3.942;2022-07-29T01:27:51;18.70;99.50
9223;DHT22;7557;51.698;3.942;2022-07-29T01:30:27;18.70;99.60
9223;DHT22;7557;51.698;3.942;2022-07-29T01:32:58;18.80;99.50
9223;DHT22;7557;51.698;3.942;2022-07-29T01:35:30;18.80;99.40
9223;DHT22;7557;51.698;3.942;2022-07-29T01:38:05;18.80;99.50
9223;DHT22;7557;51.698;3.942;2022-07-29T01:40:36;18.70;99.60
9223;DHT22;7557;51.698;3.942;2022-07-29T01:43:11;18.60;99.80
9223;DHT22;7557;51.698;3.942;2022-07-29T01:45:43;18.50;99.90
9223;DHT22;7557;51.698;3.942;2022-07-29T01:48:15;18.40;99.90
9223;DHT22;7557;51.698;3.942;2022-07-29T01:50:47;18.40;99.90
9223;DHT22;7557;51.698;3.942;2022-07-29T01:53:23;18.40;99.90
9223;DHT22;7557;51.698;3.942;2022-07-29T01:55:53;18.30;99.90
9223;DHT22;7557;51.698;3.942;2022-07-29T01:58:22;18.30;99.90
9223;DHT22;7557;51.698;3.942;2022-07-29T02:00:51;18.30;99.90
9223;DHT22;7557;51.698;3.942;2022-07-29T02:03:20;18.30;99.90
9223;DHT22;7557;51.698;3.942;2022-07-29T02:05:48;18.40;99.90
9223;DHT22;7557;51.698;3.942;2022-07-29T02:08:18;18.40;99.90
9223;DHT22;7557;51.698;3.942;2022-07-29T02:10:47;18.50;99.90
9223;DHT22;7557;51.698;3.942;2022-07-29T02:13:16;18.50;99.90
9223;DHT22;7557;51.698;3.942;2022-07-29T02:15:46;18.60;99.90
9223;DHT22;7557;51.698;3.942;2022-07-29T02:18:17;18.50;99.90
9223;DHT22;7557;51.698;3.942;2022-07-29T02:20:48;18.50;99.90
9223;DHT22;7557;51.698;3.942;2022-07-29T02:23:18;18.40;99.90
9223;DHT22;7557;51.698;3.942;2022-07-29T02:25:48;18.50;99.90
9223;DHT22;7557;51.698;3.942;2022-07-29T02:28:17;18.60;99.90
9223;DHT22;7557;51.698;3.942;2022-07-29T02:30:46;18.70;99.90
9223;DHT22;7557;51.698;3.942;2022-07-29T02:33:17;18.70;99.90
9223;DHT22;7557;51.698;3.942;2022-07-29T02:35:46;18.70;99.90
9223;DHT22;7557;51.698;3.942;2022-07-29T02:38:15;18.70;99.90
9223;DHT22;7557;51.698;3.942;2022-07-29T02:41:03;18.70;99.90
9223;DHT22;7557;51.698;3.942;2022-07-29T02:43:31;18.70;99.90
9223;DHT22;7557;51.698;3.942;2022-07-29T02:46:00;18.70;99.90
9223;DHT22;7557;51.698;3.942;2022-07-29T02:48:36;18.70;99.90
9223;DHT22;7557;51.698;3.942;2022-07-29T02:51:08;18.60;99.90
9223;DHT22;7557;51.698;3.942;2022-07-29T02:53:36;18.60;99.90
9223;DHT22;7557;51.698;3.942;2022-07-29T02:56:10;18.60;99.90
9223;DHT22;7557;51.698;3.942;2022-07-29T02:58:42;18.60;99.90
9223;DHT22;7557;51.698;3.942;2022-07-29T03:01:15;18.70;99.90
9223;DHT22;7557;51.698;3.942;2022-07-29T03:03:45;18.60;99.90
9223;DHT22;7557;51.698;3.942;2022-07-29T03:06:15;18.60;99.90
9223;DHT22;7557;51.698;3.942;2022-07-29T03:08:44;18.40;99.90
9223;DHT22;7557;51.698;3.942;2022-07-29T03:11:12;18.40;99.90
9223;DHT22;7557;51.698;3.942;2022-07-29T03:13:40;18.40;99.90
9223;DHT22;7557;51.698;3.942;2022-07-29T03:16:08;18.30;99.90
9223;DHT22;7557;51.698;3.942;2022-07-29T03:18:36;18.10;99.90
9223;DHT22;7557;51.698;3.942;2022-07-29T03:21:05;18.10;99.90
9223;DHT22;7557;51.698;3.942;2022-07-29T03:23:32;18.00;99.90
9223;DHT22;7557;51.698;3.942;2022-07-29T03:25:59;18.00;99.90
9223;DHT22;7557;51.698;3.942;2022-07-29T03:28:27;18.00;99.90
9223;DHT22;7557;51.698;3.942;2022-07-29T03:30:54;18.00;99.90
9223;DHT22;7557;51.698;3.942;2022-07-29T03:33:21;18.10;99.90
9223;DHT22;7557;51.698;3.942;2022-07-29T03:35:49;18.10;99.90
9223;DHT22;7557;51.698;3.942;2022-07-29T03:38:18;18.20;99.90
9223;DHT22;7557;51.698;3.942;2022-07-29T03:40:49;18.20;99.90
9223;DHT22;7557;51.698;3.942;2022-07-29T03:43:18;18.20;99.90
9223;DHT22;7557;51.698;3.942;2022-07-29T03:45:49;18.00;99.90
9223;DHT22;7557;51.698;3.942;2022-07-29T03:48:20;17.90;99.90
9223;DHT22;7557;51.698;3.942;2022-07-29T03:50:50;17.80;99.90
9223;DHT22;7557;51.698;3.942;2022-07-29T03:53:18;17.80;99.90
9223;DHT22;7557;51.698;3.942;2022-07-29T03:55:48;17.80;99.90
9223;DHT22;7557;51.698;3.942;2022-07-29T03:58:18;17.90;99.90
9223;DHT22;7557;51.698;3.942;2022-07-29T04:00:46;18.10;99.90
9223;DHT22;7557;51.698;3.942;2022-07-29T04:03:14;18.10;99.90
9223;DHT22;7557;51.698;3.942;2022-07-29T04:05:41;18.10;99.90
9223;DHT22;7557;51.698;3.942;2022-07-29T04:08:08;18.00;99.90
9223;DHT22;7557;51.698;3.942;2022-07-29T04:10:38;18.00;99.90
9223;DHT22;7557;51.698;3.942;2022-07-29T04:13:05;17.90;99.90
9223;DHT22;7557;51.698;3.942;2022-07-29T04:15:32;17.90;99.90
9223;DHT22;7557;51.698;3.942;2022-07-29T04:17:59;18.00;99.90
9223;DHT22;7557;51.698;3.942;2022-07-29T04:20:26;18.10;99.90
9223;DHT22;7557;51.698;3.942;2022-07-29T04:22:53;18.10;99.90
9223;DHT22;7557;51.698;3.942;2022-07-29T04:25:21;18.20;99.90
9223;DHT22;7557;51.698;3.942;2022-07-29T04:27:50;18.20;99.90
9223;DHT22;7557;51.698;3.942;2022-07-29T04:30:30;18.20;99.90
9223;DHT22;7557;51.698;3.942;2022-07-29T04:32:57;18.10;99.90
9223;DHT22;7557;51.698;3.942;2022-07-29T04:35:24;18.00;99.90
9223;DHT22;7557;51.698;3.942;2022-07-29T04:37:51;18.00;99.90
9223;DHT22;7557;51.698;3.942;2022-07-29T04:40:19;18.00;99.90
9223;DHT22;7557;51.698;3.942;2022-07-29T04:42:46;18.00;99.90
9223;DHT22;7557;51.698;3.942;2022-07-29T04:45:15;18.00;99.90
9223;DHT22;7557;51.698;3.942;2022-07-29T04:47:42;17.80;99.90
9223;DHT22;7557;51.698;3.942;2022-07-29T04:50:10;17.70;99.90
9223;DHT22;7557;51.698;3.942;2022-07-29T04:52:38;17.80;99.90
9223;DHT22;7557;51.698;3.942;2022-07-29T04:55:06;17.90;99.90
9223;DHT22;7557;51.698;3.942;2022-07-29T04:57:33;18.00;99.90
9223;DHT22;7557;51.698;3.942;2022-07-29T05:00:00;18.10;99.90
9223;DHT22;7557;51.698;3.942;2022-07-29T05:02:29;18.20;99.90
9223;DHT22;7557;51.698;3.942;2022-07-29T05:04:56;18.30;99.90
9223;DHT22;7557;51.698;3.942;2022-07-29T05:07:23;18.30;99.90
9223;DHT22;7557;51.698;3.942;2022-07-29T05:09:50;18.20;99.90
9223;DHT22;7557;51.698;3.942;2022-07-29T05:12:18;18.20;99.90
9223;DHT22;7557;51.698;3.942;2022-07-29T05:14:45;18.20;99.90
9223;DHT22;7557;51.698;3.942;2022-07-29T05:17:12;18.20;99.90
9223;DHT22;7557;51.698;3.942;2022-07-29T05:19:41;18.10;99.90
9223;DHT22;7557;51.698;3.942;2022-07-29T05:22:08;18.10;99.90
9223;DHT22;7557;51.698;3.942;2022-07-29T05:24:35;18.10;99.90
9223;DHT22;7557;51.698;3.942;2022-07-29T05:27:03;18.20;99.90
9223;DHT22;7557;51.698;3.942;2022-07-29T05:29:30;18.30;99.90
9223;DHT22;7557;51.698;3.942;2022-07-29T05:31:57;18.40;99.90
9223;DHT22;7557;51.698;3.942;2022-07-29T05:34:24;18.50;99.90
9223;DHT22;7557;51.698;3.942;2022-07-29T05:36:53;18.60;99.90
9223;DHT22;7557;51.698;3.942;2022-07-29T05:39:20;18.80;99.90
9223;DHT22;7557;51.698;3.942;2022-07-29T05:41:47;19.00;99.90
9223;DHT22;7557;51.698;3.942;2022-07-29T05:44:14;19.20;99.90
9223;DHT22;7557;51.698;3.942;2022-07-29T05:46:42;19.40;99.90
9223;DHT22;7557;51.698;3.942;2022-07-29T05:49:09;19.50;99.90
9223;DHT22;7557;51.698;3.942;2022-07-29T05:51:36;19.60;99.90
9223;DHT22;7557;51.698;3.942;2022-07-29T05:54:04;19.70;99.90
9223;DHT22;7557;51.698;3.942;2022-07-29T05:56:32;19.90;99.90
9223;DHT22;7557;51.698;3.942;2022-07-29T05:58:59;20.10;99.90
9223;DHT22;7557;51.698;3.942;2022-07-29T06:01:26;20.40;99.90
9223;DHT22;7557;51.698;3.942;2022-07-29T06:03:53;20.60;99.90
9223;DHT22;7557;51.698;3.942;2022-07-29T06:06:20;20.70;99.70
9223;DHT22;7557;51.698;3.942;2022-07-29T06:08:48;20.80;99.30
9223;DHT22;7557;51.698;3.942;2022-07-29T06:11:16;20.80;99.10
9223;DHT22;7557;51.698;3.942;2022-07-29T06:13:43;21.00;99.30
9223;DHT22;7557;51.698;3.942;2022-07-29T06:16:10;21.20;99.20
9223;DHT22;7557;51.698;3.942;2022-07-29T06:18:38;21.40;98.40
9223;DHT22;7557;51.698;3.942;2022-07-29T06:21:07;21.40;98.40
9223;DHT22;7557;51.698;3.942;2022-07-29T06:23:36;21.60;97.90
9223;DHT22;7557;51.698;3.942;2022-07-29T06:26:04;21.70;98.30
9223;DHT22;7557;51.698;3.942;2022-07-29T06:28:33;21.80;98.10
9223;DHT22;7557;51.698;3.942;2022-07-29T06:31:00;21.90;97.20
9223;DHT22;7557;51.698;3.942;2022-07-29T06:33:27;22.00;97.60
9223;DHT22;7557;51.698;3.942;2022-07-29T06:35:55;22.10;97.60
9223;DHT22;7557;51.698;3.942;2022-07-29T06:38:22;22.30;96.80
9223;DHT22;7557;51.698;3.942;2022-07-29T06:40:49;22.40;96.70
9223;DHT22;7557;51.698;3.942;2022-07-29T06:43:30;22.40;96.60
9223;DHT22;7557;51.698;3.942;2022-07-29T06:46:05;22.30;96.10
9223;DHT22;7557;51.698;3.942;2022-07-29T06:48:33;22.10;96.40
9223;DHT22;7557;51.698;3.942;2022-07-29T06:51:02;22.20;96.70
9223;DHT22;7557;51.698;3.942;2022-07-29T06:53:30;22.20;96.40
9223;DHT22;7557;51.698;3.942;2022-07-29T06:55:57;22.20;96.70
9223;DHT22;7557;51.698;3.942;2022-07-29T06:58:25;22.30;96.80
9223;DHT22;7557;51.698;3.942;2022-07-29T07:00:53;22.40;96.60
9223;DHT22;7557;51.698;3.942;2022-07-29T07:03:23;22.50;96.60
9223;DHT22;7557;51.698;3.942;2022-07-29T07:05:51;22.60;96.60
9223;DHT22;7557;51.698;3.942;2022-07-29T07:08:19;22.80;95.90
9223;DHT22;7557;51.698;3.942;2022-07-29T07:10:46;22.90;95.80
9223;DHT22;7557;51.698;3.942;2022-07-29T07:13:13;23.10;96.00
9223;DHT22;7557;51.698;3.942;2022-07-29T07:15:43;23.30;95.70
9223;DHT22;7557;51.698;3.942;2022-07-29T07:18:10;23.40;95.40
9223;DHT22;7557;51.698;3.942;2022-07-29T07:20:39;23.50;95.00
9223;DHT22;7557;51.698;3.942;2022-07-29T07:23:06;23.40;94.90
9223;DHT22;7557;51.698;3.942;2022-07-29T07:25:33;23.20;94.90
9223;DHT22;7557;51.698;3.942;2022-07-29T07:28:00;23.10;95.10
9223;DHT22;7557;51.698;3.942;2022-07-29T07:30:28;23.00;95.40
9223;DHT22;7557;51.698;3.942;2022-07-29T07:32:55;23.00;95.70
9223;DHT22;7557;51.698;3.942;2022-07-29T07:35:22;23.00;95.90
9223;DHT22;7557;51.698;3.942;2022-07-29T07:37:51;23.00;95.40
9223;DHT22;7557;51.698;3.942;2022-07-29T07:40:18;23.00;95.20
9223;DHT22;7557;51.698;3.942;2022-07-29T07:42:45;22.80;95.40
9223;DHT22;7557;51.698;3.942;2022-07-29T07:45:12;22.80;95.60
9223;DHT22;7557;51.698;3.942;2022-07-29T07:47:40;22.90;95.10
9223;DHT22;7557;51.698;3.942;2022-07-29T07:50:09;22.90;95.10
9223;DHT22;7557;51.698;3.942;2022-07-29T07:52:46;22.90;95.30
9223;DHT22;7557;51.698;3.942;2022-07-29T07:55:15;23.00;95.20
9223;DHT22;7557;51.698;3.942;2022-07-29T07:57:43;23.00;94.60
9223;DHT22;7557;51.698;3.942;2022-07-29T08:00:11;23.00;94.50
9223;DHT22;7557;51.698;3.942;2022-07-29T08:02:39;22.90;94.70
9223;DHT22;7557;51.698;3.942;2022-07-29T08:05:07;22.70;94.70
9223;DHT22;7557;51.698;3.942;2022-07-29T08:07:34;22.80;95.00
9223;DHT22;7557;51.698;3.942;2022-07-29T08:10:02;22.90;94.70
9223;DHT22;7557;51.698;3.942;2022-07-29T08:12:31;23.00;94.60
9223;DHT22;7557;51.698;3.942;2022-07-29T08:14:58;22.90;95.10
9223;DHT22;7557;51.698;3.942;2022-07-29T08:17:25;22.90;94.80
9223;DHT22;7557;51.698;3.942;2022-07-29T08:19:52;22.90;95.20
9223;DHT22;7557;51.698;3.942;2022-07-29T08:22:20;23.00;94.60
9223;DHT22;7557;51.698;3.942;2022-07-29T08:24:47;22.90;94.60
9223;DHT22;7557;51.698;3.942;2022-07-29T08:27:20;22.90;94.50
9223;DHT22;7557;51.698;3.942;2022-07-29T08:29:48;22.90;94.30
9223;DHT22;7557;51.698;3.942;2022-07-29T08:32:15;23.00;94.50
9223;DHT22;7557;51.698;3.942;2022-07-29T08:34:43;23.10;94.30
9223;DHT22;7557;51.698;3.942;2022-07-29T08:37:12;23.30;94.20
9223;DHT22;7557;51.698;3.942;2022-07-29T08:39:39;23.40;93.90
9223;DHT22;7557;51.698;3.942;2022-07-29T08:42:06;23.80;94.10
9223;DHT22;7557;51.698;3.942;2022-07-29T08:44:36;24.20;92.70
9223;DHT22;7557;51.698;3.942;2022-07-29T08:47:05;23.90;92.30
9223;DHT22;7557;51.698;3.942;2022-07-29T08:49:33;23.80;92.70
9223;DHT22;7557;51.698;3.942;2022-07-29T08:52:02;23.70;93.10
9223;DHT22;7557;51.698;3.942;2022-07-29T08:54:29;23.90;93.20
9223;DHT22;7557;51.698;3.942;2022-07-29T08:56:57;24.00;92.40
9223;DHT22;7557;51.698;3.942;2022-07-29T08:59:27;23.90;93.00
9223;DHT22;7557;51.698;3.942;2022-07-29T09:01:54;23.90;92.80
9223;DHT22;7557;51.698;3.942;2022-07-29T09:04:29;23.80;92.40
9223;DHT22;7557;51.698;3.942;2022-07-29T09:06:59;23.80;92.50
9223;DHT22;7557;51.698;3.942;2022-07-29T09:09:27;23.90;92.50
9223;DHT22;7557;51.698;3.942;2022-07-29T09:11:55;24.00;92.90
9223;DHT22;7557;51.698;3.942;2022-07-29T09:14:22;24.10;92.60
9223;DHT22;7557;51.698;3.942;2022-07-29T09:16:54;24.10;92.20
9223;DHT22;7557;51.698;3.942;2022-07-29T09:19:28;24.10;92.30
9223;DHT22;7557;51.698;3.942;2022-07-29T09:21:57;24.00;92.60
9223;DHT22;7557;51.698;3.942;2022-07-29T09:24:23;24.40;92.80
9223;DHT22;7557;51.698;3.942;2022-07-29T09:26:51;24.80;92.00
9223;DHT22;7557;51.698;3.942;2022-07-29T09:29:19;24.70;91.70
9223;DHT22;7557;51.698;3.942;2022-07-29T09:31:48;24.70;92.30
9223;DHT22;7557;51.698;3.942;2022-07-29T09:34:16;25.10;91.90
9223;DHT22;7557;51.698;3.942;2022-07-29T09:36:47;25.60;91.50
9223;DHT22;7557;51.698;3.942;2022-07-29T09:39:16;25.80;91.00
9223;DHT22;7557;51.698;3.942;2022-07-29T09:41:54;26.00;90.60
9223;DHT22;7557;51.698;3.942;2022-07-29T09:44:22;25.90;90.10
9223;DHT22;7557;51.698;3.942;2022-07-29T09:46:56;25.80;90.10
9223;DHT22;7557;51.698;3.942;2022-07-29T09:49:25;25.60;90.50
9223;DHT22;7557;51.698;3.942;2022-07-29T09:52:07;25.60;90.50
9223;DHT22;7557;51.698;3.942;2022-07-29T09:54:37;25.60;90.50
9223;DHT22;7557;51.698;3.942;2022-07-29T09:57:05;25.40;90.10
9223;DHT22;7557;51.698;3.942;2022-07-29T09:59:34;25.30;90.40
9223;DHT22;7557;51.698;3.942;2022-07-29T10:02:11;25.30;90.60
9223;DHT22;7557;51.698;3.942;2022-07-29T10:04:39;25.60;90.30
9223;DHT22;7557;51.698;3.942;2022-07-29T10:07:09;25.80;90.00
9223;DHT22;7557;51.698;3.942;2022-07-29T10:09:37;25.80;89.30
9223;DHT22;7557;51.698;3.942;2022-07-29T10:12:09;26.10;89.30
9223;DHT22;7557;51.698;3.942;2022-07-29T10:14:40;26.20;88.40
9223;DHT22;7557;51.698;3.942;2022-07-29T10:17:09;26.00;89.30
9223;DHT22;7557;51.698;3.942;2022-07-29T10:19:37;26.00;89.20
9223;DHT22;7557;51.698;3.942;2022-07-29T10:22:06;26.00;90.00
9223;DHT22;7557;51.698;3.942;2022-07-29T10:24:36;26.00;89.80
9223;DHT22;7557;51.698;3.942;2022-07-29T10:27:05;26.10;89.30
9223;DHT22;7557;51.698;3.942;2022-07-29T10:29:33;26.30;88.80
9223;DHT22;7557;51.698;3.942;2022-07-29T10:32:22;26.30;89.00
9223;DHT22;7557;51.698;3.942;2022-07-29T10:35:11;26.30;88.70
9223;DHT22;7557;51.698;3.942;2022-07-29T10:37:52;26.20;88.20
9223;DHT22;7557;51.698;3.942;2022-07-29T10:40:33;26.20;89.30
9223;DHT22;7557;51.698;3.942;2022-07-29T10:43:23;26.30;90.00
9223;DHT22;7557;51.698;3.942;2022-07-29T10:45:57;26.40;90.10
9223;DHT22;7557;51.698;3.942;2022-07-29T10:48:25;26.50;89.40
9223;DHT22;7557;51.698;3.942;2022-07-29T10:50:56;26.30;90.70
9223;DHT22;7557;51.698;3.942;2022-07-29T10:53:25;26.20;90.40
9223;DHT22;7557;51.698;3.942;2022-07-29T10:56:25;26.20;91.30
9223;DHT22;7557;51.698;3.942;2022-07-29T10:59:23;26.30;90.90
9223;DHT22;7557;51.698;3.942;2022-07-29T11:01:53;26.30;90.80
9223;DHT22;7557;51.698;3.942;2022-07-29T11:07:25;26.20;91.40
9223;DHT22;7557;51.698;3.942;2022-07-29T11:10:20;26.10;91.50
9223;DHT22;7557;51.698;3.942;2022-07-29T11:12:49;26.00;91.40
9223;DHT22;7557;51.698;3.942;2022-07-29T11:15:18;26.00;91.70
9223;DHT22;7557;51.698;3.942;2022-07-29T11:18:06;26.00;91.80
9223;DHT22;7557;51.698;3.942;2022-07-29T11:20:35;26.10;91.50
9223;DHT22;7557;51.698;3.942;2022-07-29T11:23:21;26.10;91.40
9223;DHT22;7557;51.698;3.942;2022-07-29T11:26:16;26.10;91.60
9223;DHT22;7557;51.698;3.942;2022-07-29T11:28:59;26.00;91.80
9223;DHT22;7557;51.698;3.942;2022-07-29T11:31:36;26.10;91.40
9223;DHT22;7557;51.698;3.942;2022-07-29T11:34:22;26.20;90.80
9223;DHT22;7557;51.698;3.942;2022-07-29T11:37:14;26.00;90.80
9223;DHT22;7557;51.698;3.942;2022-07-29T11:39:42;26.00;90.90
9223;DHT22;7557;51.698;3.942;2022-07-29T11:42:42;25.90;90.80
9223;DHT22;7557;51.698;3.942;2022-07-29T11:45:16;26.10;90.80
9223;DHT22;7557;51.698;3.942;2022-07-29T11:47:49;26.10;90.30
9223;DHT22;7557;51.698;3.942;2022-07-29T11:50:26;26.20;90.20
9223;DHT22;7557;51.698;3.942;2022-07-29T11:52:54;26.20;90.10
9223;DHT22;7557;51.698;3.942;2022-07-29T11:55:23;26.20;90.50
9223;DHT22;7557;51.698;3.942;2022-07-29T11:57:52;26.20;90.50
9223;DHT22;7557;51.698;3.942;2022-07-29T12:00:30;26.20;90.90
9223;DHT22;7557;51.698;3.942;2022-07-29T12:02:59;26.30;90.80
9223;DHT22;7557;51.698;3.942;2022-07-29T12:05:38;26.40;91.00
9223;DHT22;7557;51.698;3.942;2022-07-29T12:08:08;26.40;90.70
9223;DHT22;7557;51.698;3.942;2022-07-29T12:10:35;26.40;90.80
9223;DHT22;7557;51.698;3.942;2022-07-29T12:13:03;26.40;90.90
9223;DHT22;7557;51.698;3.942;2022-07-29T12:15:32;26.40;90.80
9223;DHT22;7557;51.698;3.942;2022-07-29T12:18:09;26.40;90.70
9223;DHT22;7557;51.698;3.942;2022-07-29T12:20:37;26.40;90.70
9223;DHT22;7557;51.698;3.942;2022-07-29T12:23:06;26.40;90.60
9223;DHT22;7557;51.698;3.942;2022-07-29T12:25:35;26.40;90.80
9223;DHT22;7557;51.698;3.942;2022-07-29T12:28:04;26.40;90.70
9223;DHT22;7557;51.698;3.942;2022-07-29T12:30:44;26.40;90.50
9223;DHT22;7557;51.698;3.942;2022-07-29T12:33:14;26.40;90.50
9223;DHT22;7557;51.698;3.942;2022-07-29T12:35:43;26.40;90.60
9223;DHT22;7557;51.698;3.942;2022-07-29T12:38:11;26.40;90.70
9223;DHT22;7557;51.698;3.942;2022-07-29T12:40:39;26.40;90.70
9223;DHT22;7557;51.698;3.942;2022-07-29T12:43:08;26.50;90.40
9223;DHT22;7557;51.698;3.942;2022-07-29T12:45:36;26.50;90.10
9223;DHT22;7557;51.698;3.942;2022-07-29T12:48:06;26.50;90.20
9223;DHT22;7557;51.698;3.942;2022-07-29T12:50:36;26.50;89.80
9223;DHT22;7557;51.698;3.942;2022-07-29T12:53:11;26.50;89.80
9223;DHT22;7557;51.698;3.942;2022-07-29T12:55:44;26.40;90.00
9223;DHT22;7557;51.698;3.942;2022-07-29T12:58:25;26.40;90.00
9223;DHT22;7557;51.698;3.942;2022-07-29T13:01:03;26.30;89.50
9223;DHT22;7557;51.698;3.942;2022-07-29T13:03:44;26.40;89.20
9223;DHT22;7557;51.698;3.942;2022-07-29T13:06:33;26.40;89.00
9223;DHT22;7557;51.698;3.942;2022-07-29T13:09:05;26.40;90.10
9223;DHT22;7557;51.698;3.942;2022-07-29T13:11:34;26.40;89.90
9223;DHT22;7557;51.698;3.942;2022-07-29T13:14:02;26.50;89.30
9223;DHT22;7557;51.698;3.942;2022-07-29T13:16:30;26.50;90.00
9223;DHT22;7557;51.698;3.942;2022-07-29T13:19:06;26.40;89.70
9223;DHT22;7557;51.698;3.942;2022-07-29T13:21:34;26.40;87.90
9223;DHT22;7557;51.698;3.942;2022-07-29T13:24:01;26.40;89.10
9223;DHT22;7557;51.698;3.942;2022-07-29T13:26:29;26.40;89.20
9223;DHT22;7557;51.698;3.942;2022-07-29T13:28:57;26.40;88.40
9223;DHT22;7557;51.698;3.942;2022-07-29T13:31:24;26.30;88.20
9223;DHT22;7557;51.698;3.942;2022-07-29T13:33:51;26.20;89.20
9223;DHT22;7557;51.698;3.942;2022-07-29T13:36:19;26.30;89.10
9223;DHT22;7557;51.698;3.942;2022-07-29T13:38:47;26.30;88.50
9223;DHT22;7557;51.698;3.942;2022-07-29T13:41:14;26.30;88.90
9223;DHT22;7557;51.698;3.942;2022-07-29T13:43:41;26.30;89.70
9223;DHT22;7557;51.698;3.942;2022-07-29T13:46:08;26.30;90.00
9223;DHT22;7557;51.698;3.942;2022-07-29T13:48:35;26.30;89.60
9223;DHT22;7557;51.698;3.942;2022-07-29T13:51:03;26.30;88.50
9223;DHT22;7557;51.698;3.942;2022-07-29T13:53:31;26.30;88.60
9223;DHT22;7557;51.698;3.942;2022-07-29T13:55:58;26.30;89.50
9223;DHT22;7557;51.698;3.942;2022-07-29T13:58:26;26.30;88.70
9223;DHT22;7557;51.698;3.942;2022-07-29T14:00:53;26.30;88.60
9223;DHT22;7557;51.698;3.942;2022-07-29T14:03:20;26.20;87.90
9223;DHT22;7557;51.698;3.942;2022-07-29T14:05:47;26.30;87.90
9223;DHT22;7557;51.698;3.942;2022-07-29T14:08:15;26.30;90.00
9223;DHT22;7557;51.698;3.942;2022-07-29T14:10:43;26.20;90.30
9223;DHT22;7557;51.698;3.942;2022-07-29T14:13:11;26.30;90.70
9223;DHT22;7557;51.698;3.942;2022-07-29T14:15:38;26.20;89.70
9223;DHT22;7557;51.698;3.942;2022-07-29T14:18:06;26.20;90.30
9223;DHT22;7557;51.698;3.942;2022-07-29T14:20:33;26.10;90.30
9223;DHT22;7557;51.698;3.942;2022-07-29T14:23:00;26.10;90.50
9223;DHT22;7557;51.698;3.942;2022-07-29T14:25:28;26.10;90.90
9223;DHT22;7557;51.698;3.942;2022-07-29T14:27:56;26.00;91.30
9223;DHT22;7557;51.698;3.942;2022-07-29T14:30:23;26.00;90.90
9223;DHT22;7557;51.698;3.942;2022-07-29T14:32:50;26.00;91.40
9223;DHT22;7557;51.698;3.942;2022-07-29T14:35:18;26.00;91.20
9223;DHT22;7557;51.698;3.942;2022-07-29T14:37:45;26.00;91.40
9223;DHT22;7557;51.698;3.942;2022-07-29T14:40:12;26.00;91.50
9223;DHT22;7557;51.698;3.942;2022-07-29T14:42:39;26.00;91.30
9223;DHT22;7557;51.698;3.942;2022-07-29T14:45:09;26.00;91.20
9223;DHT22;7557;51.698;3.942;2022-07-29T14:47:38;26.00;91.20
9223;DHT22;7557;51.698;3.942;2022-07-29T14:50:06;26.00;91.50
9223;DHT22;7557;51.698;3.942;2022-07-29T14:52:34;26.00;90.60
9223;DHT22;7557;51.698;3.942;2022-07-29T14:55:01;25.90;91.30
9223;DHT22;7557;51.698;3.942;2022-07-29T14:57:29;25.80;91.50
9223;DHT22;7557;51.698;3.942;2022-07-29T14:59:56;25.80;91.00
9223;DHT22;7557;51.698;3.942;2022-07-29T15:02:25;25.80;90.70
9223;DHT22;7557;51.698;3.942;2022-07-29T15:04:52;25.90;90.80
9223;DHT22;7557;51.698;3.942;2022-07-29T15:07:19;25.90;91.00
9223;DHT22;7557;51.698;3.942;2022-07-29T15:09:46;25.80;91.20
9223;DHT22;7557;51.698;3.942;2022-07-29T15:12:13;25.80;91.00
9223;DHT22;7557;51.698;3.942;2022-07-29T15:14:41;25.70;91.20
9223;DHT22;7557;51.698;3.942;2022-07-29T15:17:08;25.70;91.90
9223;DHT22;7557;51.698;3.942;2022-07-29T15:19:37;25.70;91.50
9223;DHT22;7557;51.698;3.942;2022-07-29T15:22:04;25.70;91.30
9223;DHT22;7557;51.698;3.942;2022-07-29T15:24:31;25.70;91.40
9223;DHT22;7557;51.698;3.942;2022-07-29T15:26:58;25.60;91.50
9223;DHT22;7557;51.698;3.942;2022-07-29T15:29:25;25.60;91.30
9223;DHT22;7557;51.698;3.942;2022-07-29T15:31:53;25.50;91.50
9223;DHT22;7557;51.698;3.942;2022-07-29T15:34:20;25.40;91.50
9223;DHT22;7557;51.698;3.942;2022-07-29T15:36:50;25.40;91.70
9223;DHT22;7557;51.698;3.942;2022-07-29T15:39:18;25.40;91.60
9223;DHT22;7557;51.698;3.942;2022-07-29T15:41:45;25.40;91.60
9223;DHT22;7557;51.698;3.942;2022-07-29T15:44:12;25.40;91.60
9223;DHT22;7557;51.698;3.942;2022-07-29T15:46:39;25.40;91.60
9223;DHT22;7557;51.698;3.942;2022-07-29T15:49:24;25.30;91.40
9223;DHT22;7557;51.698;3.942;2022-07-29T15:51:58;25.30;91.40
9223;DHT22;7557;51.698;3.942;2022-07-29T15:54:26;25.30;91.40
9223;DHT22;7557;51.698;3.942;2022-07-29T15:56:53;25.20;91.50
9223;DHT22;7557;51.698;3.942;2022-07-29T15:59:21;25.00;92.10
9223;DHT22;7557;51.698;3.942;2022-07-29T16:01:48;24.80;92.90
9223;DHT22;7557;51.698;3.942;2022-07-29T16:04:16;24.80;93.60
9223;DHT22;7557;51.698;3.942;2022-07-29T16:06:45;24.70;93.70
9223;DHT22;7557;51.698;3.942;2022-07-29T16:09:14;24.60;93.40
9223;DHT22;7557;51.698;3.942;2022-07-29T16:11:42;24.60;93.80
9223;DHT22;7557;51.698;3.942;2022-07-29T16:14:11;24.60;93.60
9223;DHT22;7557;51.698;3.942;2022-07-29T16:16:38;24.60;93.50
9223;DHT22;7557;51.698;3.942;2022-07-29T16:19:06;24.60;94.10
9223;DHT22;7557;51.698;3.942;2022-07-29T16:21:34;24.60;94.30
9223;DHT22;7557;51.698;3.942;2022-07-29T16:24:02;24.60;94.20
9223;DHT22;7557;51.698;3.942;2022-07-29T16:26:32;24.60;93.60